Time;durP1;ratioP1;P1;durP2;ratioP2;P2;SDS_P1;SDS_P2;PMS_P1;PMS_P2;Temp;Humidity;BMP_temperature;BMP_pressure;BME280_temperature;BME280_humidity;BME280_pressure;Samples;Min_cycle;Max_cycle;Signal;HPM_P1;HPM_P2
2022/12/05 00:02:11;;;;;;;40.97;25.60;;;3.90;99.90;;;;;;5080020;28;20196;-72
2022/12/05 00:04:37;;;;;;;41.83;25.43;;;3.90;99.90;;;;;;5079489;28;20653;-72
2022/12/05 00:07:04;;;;;;;44.27;25.00;;;3.90;99.90;;;;;;5079516;28;20234;-70
2022/12/05 00:09:30;;;;;;;43.20;26.17;;;3.90;99.90;;;;;;5079546;28;20240;-71
2022/12/05 00:11:57;;;;;;;43.67;24.60;;;3.90;99.90;;;;;;5079471;28;20199;-70
2022/12/05 00:14:25;;;;;;;46.40;26.80;;;3.90;99.90;;;;;;5079566;28;20251;-71
2022/12/05 00:16:52;;;;;;;47.57;27.47;;;3.90;99.90;;;;;;5079559;28;20256;-70
2022/12/05 00:19:18;;;;;;;45.70;26.30;;;3.90;99.90;;;;;;5079790;28;20195;-70
2022/12/05 00:21:45;;;;;;;44.47;26.57;;;3.90;99.90;;;;;;5079603;28;20229;-70
2022/12/05 00:24:14;;;;;;;47.23;26.13;;;3.80;99.90;;;;;;5079605;28;20207;-70
2022/12/05 00:26:41;;;;;;;40.63;25.53;;;3.80;99.90;;;;;;5079343;28;20328;-71
2022/12/05 00:29:08;;;;;;;49.30;27.80;;;3.80;99.90;;;;;;5079560;28;20199;-70
2022/12/05 00:31:35;;;;;;;43.33;25.43;;;3.70;99.90;;;;;;5079631;28;20200;-71
2022/12/05 00:34:03;;;;;;;43.17;24.37;;;3.70;99.90;;;;;;5076853;28;20203;-71
2022/12/05 00:36:32;;;;;;;42.27;25.23;;;3.70;99.90;;;;;;5076395;28;20199;-71
2022/12/05 00:39:00;;;;;;;40.03;25.00;;;3.70;99.90;;;;;;5075924;28;20323;-71
2022/12/05 00:41:28;;;;;;;43.97;25.20;;;3.70;99.90;;;;;;5075982;28;20225;-70
2022/12/05 00:43:57;;;;;;;38.57;23.93;;;3.70;99.90;;;;;;5076343;28;20610;-70
2022/12/05 00:46:26;;;;;;;35.37;22.90;;;3.70;99.90;;;;;;5076397;28;20243;-70
2022/12/05 00:48:55;;;;;;;33.63;22.87;;;3.70;99.90;;;;;;5076347;28;20265;-71
2022/12/05 00:51:25;;;;;;;34.20;22.80;;;3.70;99.90;;;;;;5076166;28;20238;-70
2022/12/05 00:53:52;;;;;;;35.63;23.00;;;3.60;99.90;;;;;;5075774;28;20226;-71
2022/12/05 00:56:20;;;;;;;33.53;23.47;;;3.60;99.90;;;;;;5076148;28;20206;-70
2022/12/05 00:58:48;;;;;;;33.20;22.60;;;3.60;99.90;;;;;;5075897;28;20201;-71
2022/12/05 01:01:16;;;;;;;34.20;22.50;;;3.60;99.90;;;;;;5075562;28;20253;-71
2022/12/05 01:03:44;;;;;;;33.93;22.40;;;3.60;99.90;;;;;;5075833;28;20243;-71
2022/12/05 01:06:13;;;;;;;31.53;22.20;;;3.60;99.90;;;;;;5075718;28;20193;-70
2022/12/05 01:08:40;;;;;;;36.47;24.30;;;3.60;99.90;;;;;;5076219;28;20181;-71
2022/12/05 01:11:08;;;;;;;34.30;23.50;;;3.60;99.90;;;;;;5075782;28;20193;-71
2022/12/05 01:13:35;;;;;;;34.60;23.37;;;3.60;99.90;;;;;;5075689;28;20193;-70
2022/12/05 01:16:03;;;;;;;30.20;21.53;;;3.60;99.90;;;;;;5075641;28;20251;-71
2022/12/05 01:18:30;;;;;;;31.13;22.20;;;3.60;99.90;;;;;;5075449;28;20201;-70
2022/12/05 01:20:57;;;;;;;32.67;21.90;;;3.60;99.90;;;;;;5075346;28;20226;-71
2022/12/05 01:23:25;;;;;;;34.67;23.30;;;3.60;99.90;;;;;;5075636;28;20198;-71
2022/12/05 01:25:53;;;;;;;35.60;23.37;;;3.60;99.90;;;;;;5075306;28;20259;-70
2022/12/05 01:28:20;;;;;;;34.03;23.67;;;3.60;99.90;;;;;;5075351;28;20198;-71
2022/12/05 01:30:49;;;;;;;32.70;22.53;;;3.60;99.90;;;;;;5074917;28;20197;-70
2022/12/05 01:33:17;;;;;;;29.93;21.37;;;3.60;99.90;;;;;;5074972;28;20197;-70
2022/12/05 01:35:44;;;;;;;31.80;21.20;;;3.50;99.90;;;;;;5075066;28;20205;-70
2022/12/05 01:38:12;;;;;;;32.77;21.93;;;3.50;99.90;;;;;;5075170;28;20197;-70
2022/12/05 01:40:41;;;;;;;31.50;21.23;;;3.50;99.90;;;;;;5075137;28;20230;-70
2022/12/05 01:43:14;;;;;;;29.40;20.67;;;3.50;99.90;;;;;;5075269;28;20200;-70
2022/12/05 01:45:43;;;;;;;29.40;20.13;;;3.50;99.90;;;;;;5074953;28;20205;-70
2022/12/05 01:48:15;;;;;;;29.43;20.77;;;3.50;99.90;;;;;;5074994;28;20205;-71
2022/12/05 01:50:42;;;;;;;31.33;20.80;;;3.50;99.90;;;;;;5074936;28;20604;-71
2022/12/05 01:53:09;;;;;;;29.03;19.80;;;3.50;99.90;;;;;;5075068;28;20197;-70
2022/12/05 01:55:36;;;;;;;28.40;20.23;;;3.40;99.90;;;;;;5074568;28;20247;-70
2022/12/05 01:58:06;;;;;;;27.87;19.20;;;3.40;99.90;;;;;;5077362;28;20243;-71
2022/12/05 02:00:33;;;;;;;27.60;19.77;;;3.30;99.90;;;;;;5080664;28;20226;-71
2022/12/05 02:03:02;;;;;;;28.60;19.17;;;3.40;99.90;;;;;;5082642;28;20260;-71
2022/12/05 02:05:31;;;;;;;27.33;18.70;;;3.30;99.90;;;;;;5081694;28;20259;-71
2022/12/05 02:07:59;;;;;;;27.53;16.90;;;3.30;99.90;;;;;;5075643;28;20229;-71
2022/12/05 02:10:26;;;;;;;26.67;18.07;;;3.20;99.90;;;;;;5075119;28;20262;-70
2022/12/05 02:12:53;;;;;;;27.73;18.27;;;3.20;99.90;;;;;;5074636;28;20205;-70
2022/12/05 02:15:41;;;;;;;28.00;17.87;;;3.20;99.90;;;;;;5074463;28;20205;-70
2022/12/05 02:18:20;;;;;;;26.53;17.83;;;3.20;99.90;;;;;;5074462;28;20201;-70
2022/12/05 02:21:15;;;;;;;27.93;18.00;;;3.20;99.90;;;;;;5074604;28;20225;-70
2022/12/05 02:24:14;;;;;;;25.80;17.40;;;3.20;99.90;;;;;;5074199;28;20538;-70
2022/12/05 02:26:53;;;;;;;25.77;17.23;;;3.20;99.90;;;;;;5074759;28;20201;-70
2022/12/05 02:29:52;;;;;;;26.23;17.00;;;3.20;99.90;;;;;;5074228;28;20246;-71
2022/12/05 02:32:29;;;;;;;23.77;14.97;;;3.20;99.90;;;;;;5074372;28;20206;-70
2022/12/05 02:35:03;;;;;;;27.03;15.40;;;3.10;99.90;;;;;;5074782;28;20228;-70
2022/12/05 02:37:38;;;;;;;26.73;16.17;;;3.10;99.90;;;;;;5074472;28;20194;-70
2022/12/05 02:40:10;;;;;;;29.20;15.47;;;3.10;99.90;;;;;;5074512;28;20247;-70
2022/12/05 02:42:43;;;;;;;20.57;14.20;;;3.00;99.90;;;;;;5074212;28;20265;-70
2022/12/05 02:45:14;;;;;;;22.70;14.87;;;3.00;99.90;;;;;;5074369;28;20202;-71
2022/12/05 02:47:45;;;;;;;25.07;14.40;;;3.00;99.90;;;;;;5074082;28;20656;-70
2022/12/05 02:50:16;;;;;;;21.43;14.03;;;3.00;99.90;;;;;;5074310;28;20201;-71
2022/12/05 02:52:45;;;;;;;19.57;13.10;;;3.00;99.90;;;;;;5074506;28;20270;-70
2022/12/05 02:55:14;;;;;;;19.10;13.10;;;3.00;99.90;;;;;;5074524;28;20201;-71
2022/12/05 02:57:45;;;;;;;19.13;12.43;;;3.00;99.90;;;;;;5073205;28;20196;-71
2022/12/05 03:00:13;;;;;;;16.90;12.17;;;2.90;99.90;;;;;;5073450;28;20655;-71
2022/12/05 03:02:42;;;;;;;15.90;11.90;;;2.90;99.90;;;;;;5073550;28;20221;-71
2022/12/05 03:05:18;;;;;;;17.10;12.20;;;2.90;99.90;;;;;;5073470;28;20201;-71
2022/12/05 03:07:48;;;;;;;18.07;11.70;;;2.90;99.90;;;;;;5073866;28;20232;-71
2022/12/05 03:10:21;;;;;;;17.90;11.63;;;2.80;99.90;;;;;;5073705;28;20198;-71
2022/12/05 03:12:54;;;;;;;17.03;11.40;;;2.80;99.90;;;;;;5073995;28;20338;-71
2022/12/05 03:15:25;;;;;;;16.00;10.17;;;2.80;99.90;;;;;;5073289;28;20201;-71
2022/12/05 03:18:03;;;;;;;16.70;10.37;;;2.70;99.90;;;;;;5073343;28;20220;-71
2022/12/05 03:20:34;;;;;;;14.07;9.93;;;2.70;99.90;;;;;;5073671;28;20278;-71
2022/12/05 03:23:07;;;;;;;16.33;10.87;;;2.70;99.90;;;;;;5073468;28;20204;-71
2022/12/05 03:25:40;;;;;;;13.47;9.90;;;2.70;99.90;;;;;;5073987;28;20652;-71
2022/12/05 03:28:14;;;;;;;15.07;10.27;;;2.70;99.90;;;;;;5073657;28;20201;-71
2022/12/05 03:30:42;;;;;;;17.90;10.20;;;2.70;99.90;;;;;;5073743;28;20656;-71
2022/12/05 03:33:13;;;;;;;15.73;10.47;;;2.70;99.90;;;;;;5073628;28;20603;-71
2022/12/05 03:35:44;;;;;;;14.00;9.93;;;2.70;99.90;;;;;;5073439;28;20599;-71
2022/12/05 03:38:14;;;;;;;15.63;10.10;;;2.70;99.90;;;;;;5073500;28;20247;-71
2022/12/05 03:40:47;;;;;;;15.20;10.10;;;2.70;99.90;;;;;;5073441;28;20692;-71
2022/12/05 03:43:22;;;;;;;13.73;9.80;;;2.70;99.90;;;;;;5073122;28;20251;-71
2022/12/05 03:45:52;;;;;;;14.10;9.20;;;2.80;99.90;;;;;;5073627;28;20192;-71
2022/12/05 03:48:27;;;;;;;14.80;10.43;;;2.70;99.90;;;;;;5074830;28;20262;-71
2022/12/05 03:50:56;;;;;;;15.10;9.53;;;2.80;99.90;;;;;;5076126;28;20208;-71
2022/12/05 03:53:26;;;;;;;15.90;9.60;;;2.80;99.90;;;;;;5078371;28;20659;-72
2022/12/05 03:55:59;;;;;;;11.70;9.30;;;2.70;99.90;;;;;;5075721;28;20201;-71
2022/12/05 03:58:30;;;;;;;14.33;9.73;;;2.70;99.90;;;;;;5077292;28;20201;-73
2022/12/05 04:00:59;;;;;;;15.87;10.83;;;2.80;99.90;;;;;;5073707;28;20620;-72
2022/12/05 04:03:38;;;;;;;16.43;11.33;;;2.70;99.90;;;;;;5074562;28;20197;-72
2022/12/05 04:06:10;;;;;;;14.50;10.60;;;2.80;99.90;;;;;;5075632;28;20193;-73
2022/12/05 04:08:40;;;;;;;17.53;11.60;;;2.80;99.90;;;;;;5077277;28;20284;-72
2022/12/05 04:11:11;;;;;;;18.30;11.73;;;2.80;99.90;;;;;;5083114;28;20204;-71
2022/12/05 04:13:41;;;;;;;21.47;12.57;;;2.70;99.90;;;;;;5081046;28;20205;-73
2022/12/05 04:19:02;;;;;;;21.03;13.47;;;2.70;99.90;;;;;;5083556;28;20196;-73
2022/12/05 04:21:38;;;;;;;22.70;14.43;;;2.70;99.90;;;;;;5083447;28;20222;-73
2022/12/05 04:27:03;;;;;;;24.93;13.53;;;2.60;99.90;;;;;;5083347;28;20259;-73
2022/12/05 04:29:36;;;;;;;25.13;14.20;;;2.60;99.90;;;;;;5083259;28;20251;-73
2022/12/05 04:32:08;;;;;;;24.27;14.40;;;2.50;99.90;;;;;;5083180;28;20247;-73
2022/12/05 04:34:38;;;;;;;24.63;15.53;;;2.50;99.90;;;;;;5084488;28;20212;-72
2022/12/05 04:37:09;;;;;;;25.70;14.50;;;2.50;99.90;;;;;;5083103;28;20208;-73
2022/12/05 04:39:41;;;;;;;29.43;15.03;;;2.40;99.90;;;;;;5083144;28;20609;-71
2022/12/05 04:42:10;;;;;;;28.33;15.60;;;2.50;99.90;;;;;;5081626;28;20229;-71
2022/12/05 04:44:43;;;;;;;32.10;17.37;;;2.50;99.90;;;;;;5082281;28;20196;-72
2022/12/05 04:47:13;;;;;;;31.00;16.67;;;2.40;99.90;;;;;;5081342;28;20693;-71
2022/12/05 04:49:43;;;;;;;28.40;15.70;;;2.30;99.90;;;;;;5082738;28;20197;-71
2022/12/05 04:52:12;;;;;;;32.23;15.83;;;2.40;99.90;;;;;;5082865;28;20250;-72
2022/12/05 04:54:43;;;;;;;27.87;15.33;;;2.30;99.90;;;;;;5082820;28;20201;-71
2022/12/05 04:57:15;;;;;;;32.60;17.20;;;2.30;99.90;;;;;;5082463;28;20192;-75
2022/12/05 04:59:42;;;;;;;30.10;16.03;;;2.30;99.90;;;;;;5083057;28;20251;-71
2022/12/05 05:02:12;;;;;;;31.37;17.73;;;2.30;99.90;;;;;;5083263;28;20247;-74
2022/12/05 05:04:44;;;;;;;67.23;19.23;;;2.30;99.90;;;;;;5082121;28;20648;-71
2022/12/05 05:07:12;;;;;;;41.10;19.73;;;2.20;99.90;;;;;;5082555;28;20286;-71
2022/12/05 05:09:39;;;;;;;38.93;19.97;;;2.20;99.90;;;;;;5080089;28;20197;-71
2022/12/05 05:12:08;;;;;;;41.73;19.97;;;2.10;99.90;;;;;;5076816;28;20670;-71
2022/12/05 05:14:34;;;;;;;43.17;21.20;;;2.10;99.90;;;;;;5076842;28;20219;-71
2022/12/05 05:17:01;;;;;;;43.23;20.33;;;2.00;99.90;;;;;;5076225;28;20250;-71
2022/12/05 05:19:28;;;;;;;41.70;19.43;;;1.90;99.90;;;;;;5075568;28;20197;-71
2022/12/05 05:21:56;;;;;;;38.47;20.23;;;2.00;99.90;;;;;;5075765;28;20224;-71
2022/12/05 05:24:25;;;;;;;46.57;22.00;;;1.90;99.90;;;;;;5075720;28;20710;-72
2022/12/05 05:26:52;;;;;;;41.20;20.13;;;2.00;99.90;;;;;;5076052;28;20197;-72
2022/12/05 05:29:19;;;;;;;34.37;17.87;;;2.00;99.90;;;;;;5076171;28;20726;-72
2022/12/05 05:31:46;;;;;;;36.03;18.57;;;2.00;99.90;;;;;;5076355;28;20255;-71
2022/12/05 05:34:14;;;;;;;35.40;18.40;;;2.00;99.90;;;;;;5075927;28;20657;-72
2022/12/05 05:36:41;;;;;;;32.83;18.83;;;2.00;99.90;;;;;;5075842;28;20236;-71
2022/12/05 05:39:12;;;;;;;31.17;19.03;;;2.00;99.90;;;;;;5075545;28;20212;-73
2022/12/05 05:41:38;;;;;;;31.67;18.70;;;2.00;99.90;;;;;;5074891;28;20576;-73
2022/12/05 05:44:05;;;;;;;32.93;18.17;;;2.00;99.90;;;;;;5075542;28;20205;-71
2022/12/05 05:46:34;;;;;;;35.47;18.67;;;2.00;99.90;;;;;;5075191;28;20242;-73
2022/12/05 05:49:00;;;;;;;34.27;18.27;;;2.00;99.90;;;;;;5075765;28;20250;-71
2022/12/05 05:51:29;;;;;;;33.17;18.13;;;2.00;99.90;;;;;;5076671;28;20223;-73
2022/12/05 05:53:56;;;;;;;34.23;18.50;;;2.00;99.90;;;;;;5076069;28;20541;-72
2022/12/05 05:56:24;;;;;;;29.90;16.80;;;2.00;99.90;;;;;;5075767;28;20239;-73
2022/12/05 05:58:55;;;;;;;30.17;17.30;;;2.00;99.90;;;;;;5075057;28;20197;-73
2022/12/05 06:01:22;;;;;;;29.47;17.30;;;2.00;99.90;;;;;;5075243;28;20330;-73
2022/12/05 06:03:50;;;;;;;31.47;17.77;;;2.00;99.90;;;;;;5074589;28;20247;-73
2022/12/05 06:06:17;;;;;;;29.30;18.10;;;2.00;99.90;;;;;;5074367;28;20255;-73
2022/12/05 06:08:45;;;;;;;43.27;25.57;;;2.00;99.90;;;;;;5074662;28;20247;-73
2022/12/05 06:11:13;;;;;;;74.83;41.53;;;2.00;99.90;;;;;;5074505;28;20664;-73
2022/12/05 06:13:41;;;;;;;31.50;18.33;;;2.00;99.90;;;;;;5074649;28;20209;-73
2022/12/05 06:16:10;;;;;;;29.17;16.80;;;2.10;99.90;;;;;;5074221;28;20196;-72
2022/12/05 06:18:37;;;;;;;39.47;26.63;;;2.10;99.90;;;;;;5074325;28;20200;-72
2022/12/05 06:21:07;;;;;;;33.00;19.90;;;2.10;99.90;;;;;;5074328;28;20572;-72
2022/12/05 06:23:34;;;;;;;32.47;17.77;;;2.10;99.90;;;;;;5074010;28;20629;-72
2022/12/05 06:26:01;;;;;;;31.33;18.03;;;2.10;99.90;;;;;;5074163;28;20631;-72
2022/12/05 06:28:28;;;;;;;32.10;19.47;;;2.20;99.90;;;;;;5074372;28;20208;-72
2022/12/05 06:30:56;;;;;;;36.13;17.63;;;2.20;99.90;;;;;;5073945;28;20197;-72
2022/12/05 06:33:23;;;;;;;28.10;17.30;;;2.20;99.90;;;;;;5073531;28;20197;-73
2022/12/05 06:35:49;;;;;;;33.10;18.20;;;2.30;99.90;;;;;;5074211;28;20256;-72
2022/12/05 06:38:16;;;;;;;31.73;17.53;;;2.20;99.90;;;;;;5074265;28;20200;-72
2022/12/05 06:40:44;;;;;;;31.13;17.10;;;2.20;99.90;;;;;;5074077;28;20247;-72
2022/12/05 06:43:11;;;;;;;29.47;17.30;;;2.10;99.90;;;;;;5074273;28;20229;-72
2022/12/05 06:45:38;;;;;;;33.10;19.10;;;2.20;99.90;;;;;;5074094;28;20201;-72
2022/12/05 06:48:06;;;;;;;32.43;18.00;;;2.20;99.90;;;;;;5073824;28;20201;-72
2022/12/05 06:50:33;;;;;;;31.60;18.37;;;2.20;99.90;;;;;;5074067;28;20200;-73
2022/12/05 06:53:00;;;;;;;33.37;18.43;;;2.30;99.90;;;;;;5074095;28;20197;-72
2022/12/05 06:55:26;;;;;;;32.53;17.97;;;2.30;99.90;;;;;;5073827;28;20254;-72
2022/12/05 06:57:53;;;;;;;33.50;19.00;;;2.20;99.90;;;;;;5073944;28;20254;-72
2022/12/05 07:03:05;;;;;;;32.97;17.93;;;2.20;99.90;;;;;;5074209;28;20583;-72
2022/12/05 07:05:33;;;;;;;33.33;17.60;;;2.10;99.90;;;;;;5073816;28;20599;-72
2022/12/05 07:07:59;;;;;;;37.33;18.23;;;2.20;99.90;;;;;;5074121;28;20632;-72
2022/12/05 07:10:26;;;;;;;32.93;18.30;;;2.20;99.90;;;;;;5073594;28;20209;-72
2022/12/05 07:12:53;;;;;;;35.57;18.37;;;2.20;99.90;;;;;;5074417;28;20341;-72
2022/12/05 07:15:19;;;;;;;32.80;17.57;;;2.20;99.90;;;;;;5074699;28;20204;-73
2022/12/05 07:17:46;;;;;;;39.70;19.83;;;2.20;99.90;;;;;;5073842;28;20657;-73
2022/12/05 07:20:16;;;;;;;35.93;18.57;;;2.20;99.90;;;;;;5074693;28;20197;-73
2022/12/05 07:22:43;;;;;;;34.10;18.13;;;2.30;99.90;;;;;;5073861;28;20795;-73
2022/12/05 07:25:10;;;;;;;38.33;19.07;;;2.30;99.90;;;;;;5073926;28;20270;-73
2022/12/05 07:27:36;;;;;;;34.17;17.90;;;2.30;99.90;;;;;;5075516;28;20225;-73
2022/12/05 07:30:04;;;;;;;33.33;18.17;;;2.30;99.90;;;;;;5082751;28;20615;-73
2022/12/05 07:32:33;;;;;;;34.00;17.57;;;2.30;99.90;;;;;;5082561;28;20197;-74
2022/12/05 07:34:59;;;;;;;36.07;18.30;;;2.40;99.90;;;;;;5082296;28;20235;-73
2022/12/05 07:37:27;;;;;;;31.23;17.73;;;2.40;99.90;;;;;;5075211;28;20204;-73
2022/12/05 07:39:54;;;;;;;31.00;16.90;;;2.40;99.90;;;;;;5073860;28;20243;-74
2022/12/05 07:42:21;;;;;;;29.37;17.80;;;2.50;99.90;;;;;;5073373;28;20225;-73
2022/12/05 07:44:47;;;;;;;31.30;17.93;;;2.50;99.90;;;;;;5077270;28;20205;-73
2022/12/05 07:47:14;;;;;;;31.03;16.90;;;2.60;99.90;;;;;;5077433;28;20193;-73
2022/12/05 07:49:40;;;;;;;28.43;16.70;;;2.60;99.90;;;;;;5077084;28;20254;-73
2022/12/05 07:52:08;;;;;;;34.20;17.70;;;2.60;99.90;;;;;;5077254;28;20197;-73
2022/12/05 07:54:36;;;;;;;31.63;17.83;;;2.70;99.90;;;;;;5076857;28;20250;-73
2022/12/05 07:57:03;;;;;;;31.00;16.83;;;2.70;99.90;;;;;;5076982;28;20598;-73
2022/12/05 07:59:30;;;;;;;32.10;18.47;;;2.70;99.90;;;;;;5077169;28;20193;-73
2022/12/05 08:01:56;;;;;;;28.70;16.73;;;2.70;99.90;;;;;;5076875;28;20204;-73
2022/12/05 08:04:23;;;;;;;26.07;16.53;;;2.70;99.90;;;;;;5076853;28;20193;-72
2022/12/05 08:06:49;;;;;;;30.53;17.53;;;2.80;99.90;;;;;;5076608;28;20282;-74
2022/12/05 08:09:16;;;;;;;29.63;17.33;;;2.90;99.90;;;;;;5076745;28;20291;-72
2022/12/05 08:11:44;;;;;;;25.73;16.83;;;2.90;99.90;;;;;;5076656;28;20734;-72
2022/12/05 08:14:11;;;;;;;25.83;16.27;;;2.90;99.90;;;;;;5076909;28;20623;-72
2022/12/05 08:16:37;;;;;;;28.83;16.83;;;2.90;99.90;;;;;;5076839;28;20733;-72
2022/12/05 08:19:06;;;;;;;49.77;17.83;;;2.90;99.90;;;;;;5076939;28;20198;-72
2022/12/05 08:21:34;;;;;;;41.83;24.43;;;3.00;99.90;;;;;;5076608;28;20259;-72
2022/12/05 08:24:03;;;;;;;32.23;19.27;;;2.90;99.90;;;;;;5076619;28;20351;-72
2022/12/05 08:26:31;;;;;;;27.47;15.97;;;3.00;99.90;;;;;;5076936;28;20714;-72
2022/12/05 08:29:04;;;;;;;26.10;16.07;;;3.10;99.90;;;;;;5077459;28;20258;-72
2022/12/05 08:31:33;;;;;;;24.23;16.00;;;3.10;99.90;;;;;;5078287;28;20201;-73
2022/12/05 08:34:01;;;;;;;27.73;16.33;;;3.10;99.90;;;;;;5077553;28;20255;-72
2022/12/05 08:36:29;;;;;;;24.53;15.70;;;3.00;99.90;;;;;;5077643;28;20194;-73
2022/12/05 08:38:56;;;;;;;25.00;15.50;;;2.90;99.90;;;;;;5077707;28;20202;-72
2022/12/05 08:41:27;;;;;;;27.57;16.77;;;2.90;99.90;;;;;;5077510;28;20196;-74
2022/12/05 08:43:54;;;;;;;25.27;16.57;;;3.00;99.90;;;;;;5077954;28;20234;-72
2022/12/05 08:46:22;;;;;;;24.77;16.27;;;3.00;99.90;;;;;;5083349;28;20205;-73
2022/12/05 08:48:48;;;;;;;26.20;16.77;;;3.00;99.90;;;;;;5080276;28;20661;-72
2022/12/05 08:51:15;;;;;;;26.03;15.93;;;3.00;99.90;;;;;;5082314;28;20612;-73
2022/12/05 08:53:42;;;;;;;27.77;16.77;;;3.00;99.90;;;;;;5081278;28;20194;-72
2022/12/05 08:56:10;;;;;;;26.93;16.17;;;2.90;99.90;;;;;;5081892;28;20199;-72
2022/12/05 08:58:37;;;;;;;27.40;16.30;;;2.90;99.90;;;;;;5079910;28;20193;-73
2022/12/05 09:01:05;;;;;;;25.43;16.00;;;3.00;99.90;;;;;;5082673;28;20205;-73
2022/12/05 09:03:33;;;;;;;26.40;16.60;;;3.00;99.90;;;;;;5080801;28;20224;-73
2022/12/05 09:06:07;;;;;;;28.87;16.17;;;3.00;99.90;;;;;;5082177;28;20717;-72
2022/12/05 09:08:34;;;;;;;29.40;17.50;;;3.00;99.90;;;;;;5081191;28;20649;-72
2022/12/05 09:11:04;;;;;;;27.33;16.67;;;3.00;99.90;;;;;;5079657;28;20201;-73
2022/12/05 09:13:30;;;;;;;27.20;16.43;;;3.00;99.90;;;;;;5075702;28;20208;-73
2022/12/05 09:15:57;;;;;;;28.97;18.03;;;3.10;99.90;;;;;;5075498;28;20210;-73
2022/12/05 09:18:24;;;;;;;28.13;17.23;;;3.20;99.90;;;;;;5075669;28;20556;-73
2022/12/05 09:20:52;;;;;;;26.30;16.07;;;3.20;99.90;;;;;;5075745;28;20611;-73
2022/12/05 09:23:18;;;;;;;24.50;15.90;;;3.20;99.90;;;;;;5075615;28;20565;-73
2022/12/05 09:25:45;;;;;;;25.43;16.50;;;3.20;99.90;;;;;;5075848;28;20584;-74
2022/12/05 09:28:11;;;;;;;23.87;15.97;;;3.20;99.90;;;;;;5077339;28;20203;-73
2022/12/05 09:30:38;;;;;;;25.97;16.57;;;3.20;99.90;;;;;;5076894;28;20258;-73
2022/12/05 09:33:05;;;;;;;22.47;15.00;;;3.20;99.90;;;;;;5075533;28;20232;-72
2022/12/05 09:35:32;;;;;;;26.30;16.27;;;3.20;99.90;;;;;;5075371;28;20195;-73
2022/12/05 09:38:00;;;;;;;25.13;16.37;;;3.30;99.90;;;;;;5075497;28;20202;-73
2022/12/05 09:40:26;;;;;;;23.00;15.60;;;3.40;99.90;;;;;;5075343;28;20595;-73
2022/12/05 09:43:04;;;;;;;23.90;15.07;;;3.40;99.90;;;;;;5075474;28;20219;-73
2022/12/05 09:45:37;;;;;;;23.13;15.10;;;3.50;99.90;;;;;;5075568;28;20285;-73
2022/12/05 09:48:10;;;;;;;22.93;15.10;;;3.40;99.90;;;;;;5075184;28;20276;-73
2022/12/05 09:50:44;;;;;;;23.50;15.37;;;3.40;99.90;;;;;;5075707;28;20258;-73
2022/12/05 09:53:24;;;;;;;23.73;15.57;;;3.40;99.90;;;;;;5074788;28;20202;-72
2022/12/05 09:55:54;;;;;;;25.30;16.07;;;3.30;99.90;;;;;;5075162;28;20204;-73
2022/12/05 09:58:28;;;;;;;23.63;15.80;;;3.30;99.90;;;;;;5075052;28;20193;-73
2022/12/05 10:01:01;;;;;;;25.57;16.47;;;3.40;99.90;;;;;;5075067;28;20251;-73
2022/12/05 10:03:36;;;;;;;26.57;17.00;;;3.40;99.90;;;;;;5074811;28;20283;-73
2022/12/05 10:06:13;;;;;;;25.23;16.77;;;3.40;99.90;;;;;;5074629;28;20197;-73
2022/12/05 10:09:08;;;;;;;22.63;15.37;;;3.40;99.90;;;;;;5074822;28;20204;-73
2022/12/05 10:11:41;;;;;;;23.87;15.67;;;3.40;99.90;;;;;;5072708;28;20203;-73
2022/12/05 10:14:17;;;;;;;27.47;16.77;;;3.50;99.90;;;;;;5074644;28;20197;-73
2022/12/05 10:16:49;;;;;;;29.20;17.40;;;3.50;99.90;;;;;;5074637;28;20202;-73
2022/12/05 10:19:20;;;;;;;27.50;17.07;;;3.60;99.90;;;;;;5074766;28;20201;-73
2022/12/05 10:21:53;;;;;;;25.70;16.63;;;3.60;99.90;;;;;;5074520;28;20202;-73
2022/12/05 10:24:29;;;;;;;24.03;15.33;;;3.60;99.90;;;;;;5075536;28;20224;-74
2022/12/05 10:27:00;;;;;;;24.83;15.53;;;3.70;99.90;;;;;;5074401;28;20199;-73
2022/12/05 10:29:29;;;;;;;27.10;16.30;;;3.60;99.90;;;;;;5074725;28;20734;-73
2022/12/05 10:32:03;;;;;;;25.30;15.23;;;3.60;99.90;;;;;;5075164;28;20231;-74
2022/12/05 10:34:33;;;;;;;22.67;15.17;;;3.70;99.90;;;;;;5074570;28;20197;-73
2022/12/05 10:37:08;;;;;;;24.10;15.60;;;3.60;99.90;;;;;;5074394;28;20205;-73
2022/12/05 10:39:37;;;;;;;121.57;19.80;;;3.60;99.90;;;;;;5074021;28;20270;-73
2022/12/05 10:42:04;;;;;;;25.13;15.80;;;3.60;99.90;;;;;;5074277;28;20199;-73
2022/12/05 10:44:32;;;;;;;25.93;15.60;;;3.60;99.90;;;;;;5074330;28;20229;-72
2022/12/05 10:46:58;;;;;;;26.47;17.40;;;3.60;99.90;;;;;;5073951;28;20561;-72
2022/12/05 10:49:26;;;;;;;25.07;15.83;;;3.50;99.90;;;;;;5075231;28;20202;-72
2022/12/05 10:51:53;;;;;;;29.17;17.00;;;3.50;99.90;;;;;;5074206;28;20267;-73
2022/12/05 10:54:23;;;;;;;27.13;16.13;;;3.50;99.90;;;;;;5074168;28;20681;-72
2022/12/05 10:56:52;;;;;;;26.70;17.87;;;3.60;99.90;;;;;;5074124;28;20256;-72
2022/12/05 10:59:21;;;;;;;25.53;16.73;;;3.50;99.90;;;;;;5074358;28;20195;-72
2022/12/05 11:01:51;;;;;;;29.20;17.17;;;3.50;99.90;;;;;;5078855;28;20213;-74
2022/12/05 11:04:25;;;;;;;26.80;17.23;;;3.50;99.90;;;;;;5080565;28;20229;-74
2022/12/05 11:06:57;;;;;;;28.53;16.33;;;3.50;99.90;;;;;;5081663;28;20230;-73
2022/12/05 11:09:26;;;;;;;26.37;17.30;;;3.50;99.90;;;;;;5081703;28;20216;-74
2022/12/05 11:12:18;;;;;;;26.20;16.13;;;3.40;99.90;;;;;;5080441;28;20202;-74
2022/12/05 11:14:56;;;;;;;27.97;16.57;;;3.50;99.90;;;;;;5079640;28;20263;-73
2022/12/05 11:17:25;;;;;;;33.17;18.17;;;3.40;99.90;;;;;;5079262;28;20205;-75
2022/12/05 11:19:52;;;;;;;28.50;17.20;;;3.50;99.90;;;;;;5078457;28;20232;-72
2022/12/05 11:22:19;;;;;;;26.00;16.73;;;3.50;99.90;;;;;;5079287;28;20198;-72
2022/12/05 11:24:45;;;;;;;28.47;17.27;;;3.60;99.90;;;;;;5073945;28;20274;-72
2022/12/05 11:27:27;;;;;;;26.07;16.97;;;3.70;99.90;;;;;;5073553;28;20208;-72
2022/12/05 11:29:58;;;;;;;29.03;17.37;;;3.70;99.90;;;;;;5073198;28;20659;-72
2022/12/05 11:32:27;;;;;;;24.97;16.70;;;3.80;99.90;;;;;;5073552;28;20268;-72
2022/12/05 11:35:00;;;;;;;26.57;16.40;;;3.90;99.90;;;;;;5073751;28;20203;-72
2022/12/05 11:37:32;;;;;;;22.80;15.47;;;3.90;99.90;;;;;;5073566;28;20207;-72
2022/12/05 11:40:01;;;;;;;23.17;14.97;;;4.00;99.90;;;;;;5073324;28;20203;-72
2022/12/05 11:42:43;;;;;;;23.17;15.63;;;4.10;99.90;;;;;;5073267;28;20201;-72
2022/12/05 11:45:24;;;;;;;23.97;16.07;;;4.10;99.90;;;;;;5073256;28;20294;-72
2022/12/05 11:48:09;;;;;;;21.73;15.00;;;3.90;99.90;;;;;;5073228;28;20228;-72
2022/12/05 11:50:44;;;;;;;25.00;15.73;;;3.90;99.90;;;;;;5073389;28;20196;-72
2022/12/05 11:53:35;;;;;;;23.23;15.77;;;3.90;99.90;;;;;;5073391;28;20260;-72
2022/12/05 11:56:13;;;;;;;26.07;15.30;;;3.80;99.90;;;;;;5072950;28;20203;-72
2022/12/05 11:59:00;;;;;;;24.27;16.20;;;3.80;99.90;;;;;;5073043;28;20257;-72
2022/12/05 12:01:39;;;;;;;25.20;16.70;;;3.90;99.90;;;;;;5073524;28;20207;-72
2022/12/05 12:04:32;;;;;;;25.87;16.43;;;3.80;99.90;;;;;;5073141;28;20276;-72
2022/12/05 12:07:16;;;;;;;26.00;15.93;;;3.80;99.90;;;;;;5072759;28;20236;-72
2022/12/05 12:09:52;;;;;;;29.87;16.93;;;3.80;99.90;;;;;;5072909;28;20685;-72
2022/12/05 12:12:26;;;;;;;26.97;17.80;;;3.90;99.90;;;;;;5072752;28;20205;-72
2022/12/05 12:15:03;;;;;;;27.73;17.53;;;3.90;99.90;;;;;;5072616;28;20250;-72
2022/12/05 12:17:40;;;;;;;31.40;19.27;;;3.80;99.90;;;;;;5072519;28;20357;-72
2022/12/05 12:20:33;;;;;;;28.30;17.60;;;3.90;99.90;;;;;;5072857;28;20196;-72
2022/12/05 12:23:15;;;;;;;28.50;18.20;;;3.90;99.90;;;;;;5072756;28;20650;-72
2022/12/05 12:25:50;;;;;;;32.53;18.30;;;4.00;99.90;;;;;;5072575;28;20208;-72
2022/12/05 12:28:31;;;;;;;30.07;18.20;;;4.00;99.90;;;;;;5072769;28;20254;-72
2022/12/05 12:31:23;;;;;;;30.93;18.80;;;4.10;99.90;;;;;;5075031;28;20642;-72
2022/12/05 12:33:57;;;;;;;32.00;20.10;;;4.10;99.90;;;;;;5076106;28;20203;-73
2022/12/05 12:36:27;;;;;;;32.37;19.13;;;4.00;99.90;;;;;;5076348;28;20197;-72
2022/12/05 12:39:17;;;;;;;29.63;19.77;;;4.10;99.90;;;;;;5076804;28;20234;-73
2022/12/05 12:41:56;;;;;;;35.37;20.40;;;4.10;99.90;;;;;;5076527;28;20196;-73
2022/12/05 12:44:50;;;;;;;30.03;18.57;;;4.10;99.90;;;;;;5076295;28;20274;-73
2022/12/05 12:47:38;;;;;;;29.47;18.33;;;4.20;99.90;;;;;;5079005;28;20330;-74
2022/12/05 12:50:13;;;;;;;27.93;17.90;;;4.20;99.90;;;;;;5076640;28;20211;-72
2022/12/05 12:53:11;;;;;;;27.47;19.07;;;4.20;99.90;;;;;;5076471;28;20200;-75
2022/12/05 12:55:45;;;;;;;31.97;20.33;;;4.30;99.90;;;;;;5076464;28;20204;-74
2022/12/05 12:58:24;;;;;;;50.23;37.40;;;4.30;99.90;;;;;;5076058;28;20656;-75
2022/12/05 13:01:01;;;;;;;31.57;21.47;;;4.30;99.90;;;;;;5080322;28;20252;-73
2022/12/05 13:03:37;;;;;;;31.07;21.43;;;4.30;99.90;;;;;;5082548;28;20224;-78
2022/12/05 13:06:09;;;;;;;31.37;21.40;;;4.30;99.90;;;;;;5080586;28;20199;-73